Time;durP1;ratioP1;P1;durP2;ratioP2;P2;SDS_P1;SDS_P2;PMS_P1;PMS_P2;Temp;Humidity;BMP_temperature;BMP_pressure;BME280_temperature;BME280_humidity;BME280_pressure;Samples;Min_cycle;Max_cycle;Signal;HPM_P1;HPM_P2
2022/04/04 00:00:31;;;;;;;6.73;3.83;;;2.80;99.90;;;;;;10277899;28;20294;-89
2022/04/04 00:05:52;;;;;;;7.77;2.87;;;2.80;99.90;;;;;;10261895;29;20472;-90
2022/04/04 00:11:14;;;;;;;9.30;3.70;;;2.80;99.90;;;;;;10264279;29;20220;-90
2022/04/04 00:16:36;;;;;;;5.67;3.50;;;2.80;99.90;;;;;;10278590;29;20201;-89
2022/04/04 00:21:58;;;;;;;8.03;5.00;;;2.70;99.90;;;;;;10327998;28;20204;-90
2022/04/04 00:27:19;;;;;;;7.80;4.50;;;2.60;99.90;;;;;;10322825;28;20550;-88
2022/04/04 00:32:41;;;;;;;8.83;5.10;;;2.60;99.90;;;;;;10274532;28;20201;-89
2022/04/04 00:38:08;;;;;;;7.17;4.80;;;2.50;99.90;;;;;;10318019;28;20231;-90
2022/04/04 00:43:29;;;;;;;6.83;4.40;;;2.50;99.90;;;;;;10303005;28;20519;-90
2022/04/04 00:48:50;;;;;;;8.13;4.57;;;2.30;99.90;;;;;;10317009;28;20562;-91
2022/04/04 00:54:13;;;;;;;6.50;4.97;;;2.20;99.90;;;;;;10302266;28;20234;-91
2022/04/04 00:59:36;;;;;;;8.60;4.67;;;2.20;99.90;;;;;;10317283;28;20554;-91
2022/04/04 01:04:57;;;;;;;8.83;4.73;;;2.20;99.90;;;;;;10287297;28;20234;-91
2022/04/04 01:10:18;;;;;;;7.70;5.10;;;2.10;99.90;;;;;;10300131;28;20415;-88
2022/04/04 01:15:40;;;;;;;11.90;6.33;;;2.00;99.90;;;;;;10316381;28;20204;-87
2022/04/04 01:21:02;;;;;;;10.27;6.03;;;2.10;99.90;;;;;;10342516;28;20491;-90
2022/04/04 01:26:24;;;;;;;5.73;4.30;;;2.10;99.90;;;;;;10298996;28;20228;-91
2022/04/04 01:31:46;;;;;;;8.50;4.90;;;2.10;99.90;;;;;;10299134;28;20199;-87
2022/04/04 01:37:08;;;;;;;7.67;4.30;;;2.20;99.90;;;;;;10315566;28;20361;-88
2022/04/04 01:42:31;;;;;;;6.60;4.20;;;2.20;99.90;;;;;;10315171;28;20247;-90
2022/04/04 01:47:52;;;;;;;8.87;5.80;;;2.20;99.90;;;;;;10311988;28;20230;-89
2022/04/04 01:53:25;;;;;;;9.37;5.20;;;2.20;99.90;;;;;;10298421;28;20213;-79
2022/04/04 01:58:47;;;;;;;7.23;5.10;;;2.30;99.90;;;;;;10301624;28;20226;-89
2022/04/04 02:04:11;;;;;;;6.13;4.17;;;2.30;99.90;;;;;;10286018;28;20265;-91
2022/04/04 02:09:33;;;;;;;6.93;4.57;;;2.30;99.90;;;;;;10342995;28;20209;-77
2022/04/04 02:14:55;;;;;;;5.93;4.73;;;2.40;99.90;;;;;;10337113;28;20220;-91
2022/04/04 02:20:16;;;;;;;6.33;4.80;;;2.40;99.90;;;;;;10335636;28;20209;-91
2022/04/04 02:25:38;;;;;;;7.47;4.50;;;2.40;99.90;;;;;;10326246;28;20372;-88
2022/04/04 02:31:00;;;;;;;6.17;4.07;;;2.50;99.90;;;;;;10305540;28;20321;-82
2022/04/04 02:36:21;;;;;;;7.53;4.70;;;2.50;99.90;;;;;;10305438;28;20236;-87
2022/04/04 02:41:43;;;;;;;7.43;5.47;;;2.50;99.90;;;;;;10291469;28;20350;-87
2022/04/04 02:47:05;;;;;;;8.40;5.67;;;2.50;99.90;;;;;;10304615;28;20227;-89
2022/04/04 02:52:27;;;;;;;5.77;5.10;;;2.60;99.90;;;;;;10292321;28;20201;-90
2022/04/04 02:57:48;;;;;;;9.13;5.23;;;2.60;99.90;;;;;;10305648;28;20205;-90
2022/04/04 03:03:09;;;;;;;8.40;4.87;;;2.60;99.90;;;;;;10323355;28;20196;-85
2022/04/04 03:08:31;;;;;;;9.97;5.63;;;2.70;99.90;;;;;;10292508;28;20232;-88
2022/04/04 03:13:52;;;;;;;8.33;5.77;;;2.70;99.90;;;;;;10321668;28;20275;-86
2022/04/04 03:19:14;;;;;;;6.80;5.37;;;2.70;99.90;;;;;;10315866;28;20199;-90
2022/04/04 03:24:35;;;;;;;6.33;4.60;;;2.80;99.90;;;;;;10336150;28;20193;-89
2022/04/04 03:29:57;;;;;;;6.80;4.47;;;2.70;99.90;;;;;;10320492;28;20225;-83
2022/04/04 03:35:18;;;;;;;6.47;4.27;;;2.70;99.90;;;;;;10319258;28;20193;-86
2022/04/04 03:40:41;;;;;;;5.80;4.10;;;2.80;99.90;;;;;;10320256;28;20461;-90
2022/04/04 03:46:03;;;;;;;8.33;4.53;;;2.90;99.90;;;;;;10293011;28;20243;-78
2022/04/04 03:51:24;;;;;;;5.73;4.63;;;2.90;99.90;;;;;;10321098;28;20248;-83
2022/04/04 03:56:46;;;;;;;5.97;4.27;;;2.80;99.90;;;;;;10314663;28;20241;-91
2022/04/04 04:02:07;;;;;;;9.60;4.70;;;2.90;99.90;;;;;;10306443;28;20510;-88
2022/04/04 04:07:28;;;;;;;9.60;6.00;;;2.90;99.90;;;;;;10304425;28;20220;-91
2022/04/04 04:12:50;;;;;;;10.93;5.93;;;2.90;99.90;;;;;;10301554;28;20223;-91
2022/04/04 04:18:11;;;;;;;10.80;6.03;;;2.90;99.90;;;;;;10307231;28;20401;-86
2022/04/04 04:23:34;;;;;;;7.70;5.87;;;3.00;99.90;;;;;;10355245;28;20244;-88
2022/04/04 04:28:55;;;;;;;6.07;5.27;;;2.90;99.90;;;;;;10309208;28;20523;-81
2022/04/04 04:34:17;;;;;;;7.27;5.77;;;2.90;99.90;;;;;;10318236;28;20193;-91
2022/04/04 04:39:39;;;;;;;8.67;7.13;;;2.90;99.90;;;;;;10300751;28;20204;-91
2022/04/04 04:45:03;;;;;;;7.00;5.50;;;2.90;99.90;;;;;;10314003;28;20261;-90
2022/04/04 04:50:25;;;;;;;7.60;5.93;;;2.90;99.90;;;;;;10276515;28;20229;-77
2022/04/04 04:55:47;;;;;;;8.03;5.67;;;2.90;99.90;;;;;;10299975;28;20205;-78
2022/04/04 05:01:08;;;;;;;9.03;6.63;;;2.90;99.90;;;;;;10301942;28;20209;-78
2022/04/04 05:06:30;;;;;;;9.03;5.50;;;2.90;99.90;;;;;;10317158;28;20220;-90
2022/04/04 05:11:53;;;;;;;7.07;5.13;;;2.90;99.90;;;;;;10314865;28;20201;-78
2022/04/04 05:17:15;;;;;;;6.37;5.30;;;2.90;99.90;;;;;;10316608;28;20193;-83
2022/04/04 05:22:37;;;;;;;8.17;5.43;;;3.00;99.90;;;;;;10316379;28;20422;-84
2022/04/04 05:27:59;;;;;;;7.67;6.60;;;2.90;99.90;;;;;;10279283;28;20231;-85
2022/04/04 05:33:20;;;;;;;9.77;6.70;;;2.90;99.90;;;;;;10276997;28;20189;-89
2022/04/04 05:38:41;;;;;;;6.20;5.57;;;2.90;99.90;;;;;;10285777;28;20465;-91
2022/04/04 05:44:04;;;;;;;5.37;4.40;;;2.90;99.90;;;;;;10302709;28;20246;-89
2022/04/04 05:49:25;;;;;;;5.73;4.60;;;2.80;99.90;;;;;;10317149;28;20242;-88
2022/04/04 05:54:59;;;;;;;6.97;5.10;;;2.80;99.90;;;;;;10316359;28;20195;-86
2022/04/04 06:00:21;;;;;;;8.87;5.67;;;2.80;99.90;;;;;;10310885;28;20554;-87
2022/04/04 06:05:43;;;;;;;9.70;7.17;;;2.80;99.90;;;;;;10328957;28;20192;-78
2022/04/04 06:11:04;;;;;;;6.33;4.27;;;2.60;99.90;;;;;;10322594;28;20217;-79
2022/04/04 06:16:25;;;;;;;6.13;4.90;;;2.80;99.90;;;;;;10321605;28;20423;-83
2022/04/04 06:21:46;;;;;;;8.23;5.67;;;2.90;99.90;;;;;;10323033;28;20196;-87
2022/04/04 06:27:09;;;;;;;7.53;5.70;;;2.80;99.90;;;;;;10324416;28;20284;-88
2022/04/04 06:32:30;;;;;;;14.00;10.03;;;2.80;99.90;;;;;;10321573;28;20286;-79
2022/04/04 06:37:52;;;;;;;9.23;7.50;;;2.80;99.90;;;;;;10320192;28;20207;-89
2022/04/04 06:43:14;;;;;;;15.13;8.63;;;3.00;99.90;;;;;;10321278;28;20259;-82
2022/04/04 06:48:35;;;;;;;6.73;6.03;;;3.10;99.90;;;;;;10290949;28;20243;-89
2022/04/04 06:53:56;;;;;;;9.27;6.17;;;3.10;99.90;;;;;;10304497;28;20383;-84
2022/04/04 06:59:17;;;;;;;7.07;5.40;;;3.20;99.90;;;;;;10306583;28;20467;-80
2022/04/04 07:04:40;;;;;;;10.50;6.70;;;3.30;99.90;;;;;;10307205;28;20197;-85
2022/04/04 07:10:03;;;;;;;11.50;6.60;;;3.40;99.90;;;;;;10306572;28;20230;-88
2022/04/04 07:15:25;;;;;;;16.77;8.77;;;3.50;99.90;;;;;;10298181;28;20198;-85
2022/04/04 07:20:46;;;;;;;11.77;5.93;;;3.60;99.90;;;;;;10322080;28;20250;-81
2022/04/04 07:26:07;;;;;;;8.43;5.63;;;3.60;99.90;;;;;;10305621;28;20201;-77
2022/04/04 07:31:29;;;;;;;6.20;4.80;;;3.60;99.90;;;;;;10340771;28;20207;-79
2022/04/04 07:36:51;;;;;;;10.37;4.93;;;3.60;99.90;;;;;;10285562;28;20252;-80
2022/04/04 07:42:13;;;;;;;10.13;5.60;;;3.60;99.90;;;;;;10241898;28;20252;-88
2022/04/04 07:47:35;;;;;;;10.23;5.17;;;3.60;99.90;;;;;;10267962;28;20243;-87
2022/04/04 07:52:57;;;;;;;16.83;8.10;;;3.60;99.90;;;;;;10269341;28;20215;-87
2022/04/04 07:58:18;;;;;;;7.60;4.73;;;3.70;99.90;;;;;;10291730;28;20196;-81
2022/04/04 08:03:40;;;;;;;8.30;5.33;;;3.90;99.90;;;;;;10255819;29;20195;-83
2022/04/04 08:09:01;;;;;;;9.57;5.53;;;4.10;99.90;;;;;;10273926;29;20225;-79
2022/04/04 08:14:23;;;;;;;17.53;8.53;;;4.40;99.90;;;;;;10253319;29;20429;-83
2022/04/04 08:19:44;;;;;;;7.97;5.10;;;4.70;99.90;;;;;;10255147;29;20210;-87
2022/04/04 08:25:08;;;;;;;7.50;4.20;;;4.90;99.90;;;;;;10261345;29;20517;-91
2022/04/04 08:30:29;;;;;;;8.37;5.20;;;4.80;99.90;;;;;;10229835;29;20560;-81
2022/04/04 08:35:53;;;;;;;7.23;5.50;;;4.70;99.90;;;;;;10282323;28;20258;-77
2022/04/04 08:41:14;;;;;;;16.97;9.70;;;4.90;99.90;;;;;;10284702;28;20322;-86
2022/04/04 08:46:37;;;;;;;35.97;23.50;;;5.00;99.90;;;;;;10268016;28;20198;-85
2022/04/04 08:51:59;;;;;;;12.43;7.10;;;5.00;99.90;;;;;;10258059;29;20198;-80
2022/04/04 08:57:21;;;;;;;10.23;6.47;;;5.40;99.90;;;;;;10242019;29;20214;-85
2022/04/04 09:03:02;;;;;;;7.73;4.47;;;5.60;99.90;;;;;;10258774;29;20429;-79
2022/04/04 09:08:28;;;;;;;6.00;3.57;;;5.70;99.90;;;;;;10258002;29;20557;-79
2022/04/04 09:14:06;;;;;;;6.23;3.10;;;6.10;99.90;;;;;;10270802;29;20254;-76
2022/04/04 09:19:31;;;;;;;8.30;3.37;;;6.60;99.90;;;;;;10284676;28;20229;-78
2022/04/04 09:24:59;;;;;;;8.37;3.60;;;6.80;99.90;;;;;;10239322;29;20517;-78
2022/04/04 09:30:21;;;;;;;5.60;2.60;;;7.20;99.90;;;;;;10275276;29;20312;-84
2022/04/04 09:35:47;;;;;;;5.43;3.10;;;7.20;99.90;;;;;;10273989;28;20192;-86
2022/04/04 09:41:14;;;;;;;7.93;3.10;;;6.90;99.90;;;;;;10247380;28;20305;-90
2022/04/04 09:46:38;;;;;;;12.13;4.20;;;7.00;99.90;;;;;;10281315;28;20211;-84
2022/04/04 09:51:59;;;;;;;7.47;3.63;;;7.40;99.90;;;;;;10312518;28;20385;-89
2022/04/04 09:57:22;;;;;;;5.57;3.03;;;7.60;99.90;;;;;;10276282;28;20426;-90
2022/04/04 10:02:43;;;;;;;5.97;2.77;;;8.00;99.90;;;;;;10259463;29;20507;-86
2022/04/04 10:08:06;;;;;;;3.67;2.53;;;8.10;99.80;;;;;;10227130;29;20236;-83
2022/04/04 10:13:29;;;;;;;5.03;2.17;;;8.00;99.90;;;;;;10255774;29;20244;-82
2022/04/04 10:18:53;;;;;;;6.50;3.73;;;8.30;99.90;;;;;;10264773;28;20235;-88
2022/04/04 10:24:15;;;;;;;7.83;3.00;;;9.50;98.70;;;;;;10296421;28;20223;-85
2022/04/04 10:29:40;;;;;;;4.53;2.93;;;10.40;94.40;;;;;;10279237;28;20224;-86
2022/04/04 10:35:11;;;;;;;3.90;2.20;;;10.20;87.70;;;;;;10290355;28;20221;-88
2022/04/04 10:40:34;;;;;;;5.43;3.10;;;10.40;91.50;;;;;;10257163;29;20285;-81
2022/04/04 10:45:58;;;;;;;3.37;1.83;;;10.30;90.30;;;;;;10298714;28;20214;-88
2022/04/04 10:51:25;;;;;;;4.67;2.20;;;9.90;86.90;;;;;;10273364;28;20422;-76
2022/04/04 10:56:47;;;;;;;5.20;1.90;;;9.60;91.00;;;;;;10282267;28;20231;-83
2022/04/04 11:02:10;;;;;;;5.40;2.47;;;9.20;91.20;;;;;;10276410;29;20502;-85
2022/04/04 11:07:39;;;;;;;4.93;2.13;;;8.90;92.70;;;;;;10277254;29;20649;-92
2022/04/04 11:13:02;;;;;;;2.67;1.97;;;8.90;92.40;;;;;;10277784;28;20207;-84
2022/04/04 11:18:32;;;;;;;6.20;2.40;;;9.00;92.30;;;;;;10280516;28;20483;-90
2022/04/04 11:23:56;;;;;;;6.17;2.27;;;9.20;91.30;;;;;;10272998;28;20205;-83
2022/04/04 11:29:21;;;;;;;6.70;2.83;;;9.40;92.50;;;;;;10263797;29;20234;-84
2022/04/04 11:34:45;;;;;;;2.80;1.90;;;9.50;83.10;;;;;;10275951;29;20215;-85
2022/04/04 11:40:08;;;;;;;9.87;3.30;;;9.30;76.40;;;;;;10262265;29;20213;-88
2022/04/04 11:45:39;;;;;;;4.87;2.17;;;9.20;76.80;;;;;;10247245;29;20248;-88
2022/04/04 11:51:00;;;;;;;3.60;2.10;;;9.00;76.50;;;;;;10277109;29;20228;-86
2022/04/04 11:56:23;;;;;;;7.37;2.30;;;9.10;77.50;;;;;;10287012;28;20210;-80
2022/04/04 12:01:46;;;;;;;8.53;2.43;;;9.00;74.90;;;;;;10273552;29;20206;-81
2022/04/04 12:07:09;;;;;;;13.17;2.17;;;8.90;75.20;;;;;;10273940;29;20210;-86
2022/04/04 12:12:33;;;;;;;4.13;2.57;;;8.70;72.90;;;;;;10259862;29;20225;-81
2022/04/04 12:17:55;;;;;;;12.77;3.60;;;8.50;74.20;;;;;;10273736;28;20213;-85
2022/04/04 12:29:09;;;;;;;12.83;5.60;;;8.50;72.40;;;;;;10257819;29;20413;-88
2022/04/04 12:34:30;;;;;;;14.90;6.20;;;8.60;75.10;;;;;;10238760;29;20492;-83
2022/04/04 12:40:10;;;;;;;18.97;5.03;;;8.40;72.20;;;;;;10235974;28;20205;-83
2022/04/04 12:45:32;;;;;;;17.50;3.63;;;8.30;76.20;;;;;;10187645;29;20521;-80
2022/04/04 12:50:53;;;;;;;25.13;9.87;;;8.10;70.40;;;;;;10205444;29;20239;-82
2022/04/04 12:56:15;;;;;;;6.70;3.50;;;8.10;78.40;;;;;;10233095;29;20208;-85
2022/04/04 13:01:38;;;;;;;16.00;3.43;;;8.00;76.50;;;;;;10214776;29;20214;-89
2022/04/04 13:07:00;;;;;;;13.87;3.47;;;8.00;74.10;;;;;;10218536;29;20206;-79
2022/04/04 13:12:31;;;;;;;21.43;4.63;;;7.90;71.40;;;;;;10232302;29;20229;-81
2022/04/04 13:17:54;;;;;;;20.97;3.93;;;7.90;69.30;;;;;;10236380;29;20205;-81
2022/04/04 13:23:15;;;;;;;41.57;9.23;;;7.60;70.00;;;;;;10289044;29;20203;-88
2022/04/04 13:28:37;;;;;;;25.83;5.60;;;7.60;75.50;;;;;;10279724;29;20232;-80
2022/04/04 13:33:58;;;;;;;22.27;4.03;;;7.70;76.60;;;;;;10238262;29;20198;-85
2022/04/04 13:39:20;;;;;;;14.17;5.27;;;7.50;72.20;;;;;;10221740;29;20211;-91
2022/04/04 13:44:42;;;;;;;15.60;4.40;;;7.50;77.60;;;;;;10222592;29;20312;-88
2022/04/04 13:50:04;;;;;;;16.33;4.63;;;7.50;75.70;;;;;;10221827;29;20231;-86
2022/04/04 13:55:25;;;;;;;14.83;3.37;;;7.50;75.00;;;;;;10251200;29;20546;-89
2022/04/04 14:00:46;;;;;;;14.17;3.67;;;7.50;70.60;;;;;;10255671;29;20219;-85
2022/04/04 14:06:07;;;;;;;24.10;4.77;;;7.50;70.10;;;;;;10233575;29;20193;-87
2022/04/04 14:11:29;;;;;;;22.97;3.40;;;7.40;67.80;;;;;;10232155;29;20239;-85
2022/04/04 14:16:52;;;;;;;29.10;3.57;;;7.40;66.90;;;;;;10234025;29;20210;-86
2022/04/04 14:22:17;;;;;;;10.00;3.87;;;7.20;67.60;;;;;;10267507;29;20240;-85
2022/04/04 14:27:39;;;;;;;24.33;4.47;;;7.20;72.10;;;;;;10242751;29;20297;-84
2022/04/04 14:33:01;;;;;;;19.57;3.87;;;7.20;76.60;;;;;;10242227;29;20194;-83
2022/04/04 14:38:23;;;;;;;24.47;4.97;;;7.20;80.00;;;;;;10216543;29;20217;-82
2022/04/04 14:43:45;;;;;;;34.97;5.83;;;7.10;78.50;;;;;;10254075;29;20232;-86
2022/04/04 14:49:12;;;;;;;26.90;5.83;;;7.00;84.80;;;;;;10284627;28;20247;-91
2022/04/04 14:54:35;;;;;;;23.80;5.63;;;6.90;89.00;;;;;;10302505;28;20191;-86
2022/04/04 14:59:57;;;;;;;23.43;4.53;;;6.80;91.70;;;;;;10289200;29;20180;-91
2022/04/04 15:05:19;;;;;;;37.47;7.53;;;6.70;93.10;;;;;;10265496;29;20208;-88
2022/04/04 15:10:42;;;;;;;36.03;6.97;;;6.60;95.50;;;;;;10274282;29;20456;-87
2022/04/04 15:16:04;;;;;;;49.47;16.93;;;6.50;98.80;;;;;;10269276;29;20193;-86
2022/04/04 15:21:44;;;;;;;48.30;8.67;;;6.30;99.90;;;;;;10275072;29;20388;-85
2022/04/04 15:27:06;;;;;;;43.10;6.07;;;6.00;99.90;;;;;;10271013;29;20282;-87
2022/04/04 15:32:27;;;;;;;37.87;7.93;;;5.90;99.90;;;;;;10274590;28;20223;-85
2022/04/04 15:37:52;;;;;;;53.43;8.07;;;5.70;99.90;;;;;;10269610;29;20520;-87
2022/04/04 15:43:16;;;;;;;25.70;5.57;;;5.70;99.90;;;;;;10267820;29;20330;-86
2022/04/04 15:48:37;;;;;;;39.57;7.53;;;5.50;99.90;;;;;;10266802;29;20221;-86
2022/04/04 15:54:00;;;;;;;37.47;8.33;;;5.40;99.90;;;;;;10254884;29;20205;-88
2022/04/04 15:59:21;;;;;;;30.67;7.70;;;5.30;99.90;;;;;;10254830;29;20208;-87
2022/04/04 16:04:43;;;;;;;37.13;6.73;;;5.00;99.90;;;;;;10266456;29;20285;-89
2022/04/04 16:10:06;;;;;;;41.13;9.43;;;4.90;99.90;;;;;;10256484;29;20251;-87
2022/04/04 16:15:27;;;;;;;35.90;7.83;;;4.80;99.90;;;;;;10255783;29;20382;-88
2022/04/04 16:20:49;;;;;;;45.60;9.20;;;4.70;99.90;;;;;;10255239;29;20257;-87
2022/04/04 16:26:11;;;;;;;42.73;10.40;;;4.60;99.90;;;;;;10247575;29;20205;-85
2022/04/04 16:31:33;;;;;;;34.43;8.70;;;4.40;99.90;;;;;;10263481;28;20417;-86
2022/04/04 16:36:55;;;;;;;48.63;10.67;;;4.10;99.90;;;;;;10250024;29;20228;-85
2022/04/04 16:42:16;;;;;;;46.70;11.97;;;4.00;99.90;;;;;;10276162;28;20235;-84
2022/04/04 16:47:38;;;;;;;62.03;12.43;;;3.90;99.90;;;;;;10272991;28;20277;-86
2022/04/04 16:53:02;;;;;;;42.77;11.07;;;3.80;99.90;;;;;;10253526;29;20206;-85
2022/04/04 16:58:23;;;;;;;47.20;11.57;;;3.70;99.90;;;;;;10250914;29;20214;-86
2022/04/04 17:03:45;;;;;;;34.00;11.87;;;3.50;99.90;;;;;;10252140;29;20279;-83
2022/04/04 17:09:08;;;;;;;31.77;11.80;;;3.40;99.90;;;;;;10253478;29;20261;-85
2022/04/04 17:14:29;;;;;;;30.23;10.90;;;3.30;99.90;;;;;;10233796;29;20201;-85
2022/04/04 17:19:50;;;;;;;24.33;12.87;;;3.20;99.90;;;;;;10286541;28;20208;-84
2022/04/04 17:25:12;;;;;;;22.27;11.60;;;3.00;99.90;;;;;;10295969;28;20191;-82
2022/04/04 17:30:34;;;;;;;15.50;10.70;;;2.90;99.90;;;;;;10288303;28;20538;-85
2022/04/04 17:35:55;;;;;;;16.47;11.30;;;2.70;99.90;;;;;;10272156;28;20250;-85
2022/04/04 17:41:17;;;;;;;17.00;10.77;;;2.70;99.90;;;;;;10261947;28;20247;-85
2022/04/04 17:46:41;;;;;;;19.57;11.87;;;2.60;99.90;;;;;;10245336;29;20210;-85
2022/04/04 17:52:04;;;;;;;13.67;10.40;;;2.60;99.90;;;;;;10272621;28;20251;-81
2022/04/04 17:57:25;;;;;;;13.40;9.13;;;2.50;99.90;;;;;;10291427;28;20198;-85
2022/04/04 18:02:47;;;;;;;11.40;8.43;;;2.40;99.90;;;;;;10295711;28;20275;-84
2022/04/04 18:08:10;;;;;;;14.33;9.90;;;2.40;99.90;;;;;;10279485;28;20219;-86
2022/04/04 18:13:31;;;;;;;11.97;9.70;;;2.40;99.90;;;;;;10292395;28;20208;-83
2022/04/04 18:18:53;;;;;;;17.67;10.00;;;2.40;99.90;;;;;;10285424;28;20217;-85
2022/04/04 18:24:18;;;;;;;14.63;9.83;;;2.40;99.90;;;;;;10278955;28;20206;-83
2022/04/04 18:29:39;;;;;;;17.37;9.53;;;2.30;99.90;;;;;;10258873;29;20250;-81
2022/04/04 18:35:00;;;;;;;15.23;9.23;;;2.30;99.90;;;;;;10238991;29;20204;-85
2022/04/04 18:40:22;;;;;;;12.93;7.73;;;2.30;99.90;;;;;;10251819;28;20204;-84
2022/04/04 18:45:43;;;;;;;10.13;7.80;;;2.30;99.90;;;;;;10268076;29;20310;-85
2022/04/04 18:51:05;;;;;;;13.50;8.67;;;2.40;99.90;;;;;;10267189;29;20219;-84
2022/04/04 18:56:27;;;;;;;15.47;10.57;;;2.40;99.90;;;;;;10267447;29;20197;-85
2022/04/04 19:01:48;;;;;;;7.57;6.80;;;2.40;99.90;;;;;;10256136;29;20260;-85
2022/04/04 19:07:10;;;;;;;9.17;6.97;;;2.30;99.90;;;;;;10266961;28;20200;-86
2022/04/04 19:12:32;;;;;;;10.23;6.97;;;2.30;99.90;;;;;;10281574;29;20225;-84
2022/04/04 19:17:54;;;;;;;9.67;7.57;;;2.20;99.90;;;;;;10253130;28;20243;-85
2022/04/04 19:23:16;;;;;;;9.63;7.67;;;2.20;99.90;;;;;;10270107;29;20193;-84
2022/04/04 19:28:37;;;;;;;14.67;8.73;;;2.20;99.90;;;;;;10267710;29;20228;-84
2022/04/04 19:33:58;;;;;;;9.10;6.43;;;2.40;99.90;;;;;;10265646;29;20278;-85
2022/04/04 19:39:19;;;;;;;10.07;7.03;;;2.40;99.90;;;;;;10251441;29;20247;-84
2022/04/04 19:44:41;;;;;;;18.13;9.87;;;2.30;99.90;;;;;;10279316;28;20240;-85
2022/04/04 19:50:03;;;;;;;11.77;7.43;;;2.20;99.90;;;;;;10264717;29;20228;-85
2022/04/04 19:55:25;;;;;;;7.57;6.53;;;2.20;99.90;;;;;;10265011;29;20229;-84
2022/04/04 20:00:48;;;;;;;8.27;6.50;;;2.10;99.90;;;;;;10251120;29;20313;-82
2022/04/04 20:06:09;;;;;;;9.43;6.27;;;2.10;99.90;;;;;;10252405;29;20226;-84
2022/04/04 20:11:31;;;;;;;13.47;8.07;;;2.20;99.90;;;;;;10251572;29;20311;-83
2022/04/04 20:16:52;;;;;;;8.63;6.33;;;2.20;99.90;;;;;;10262888;28;20205;-85
2022/04/04 20:22:15;;;;;;;9.97;7.10;;;2.30;99.90;;;;;;10298901;28;20231;-81
2022/04/04 20:27:37;;;;;;;10.27;6.80;;;2.30;99.90;;;;;;10317726;28;20389;-83
2022/04/04 20:32:58;;;;;;;7.67;6.10;;;2.30;99.90;;;;;;10289372;28;20503;-81
2022/04/04 20:38:21;;;;;;;8.07;5.50;;;2.40;99.90;;;;;;10302700;28;20206;-85
2022/04/04 20:43:42;;;;;;;9.33;5.50;;;2.40;99.90;;;;;;10248716;29;20615;-85
2022/04/04 20:49:04;;;;;;;13.63;7.13;;;2.40;99.90;;;;;;10214078;29;20247;-85
2022/04/04 20:54:26;;;;;;;6.70;5.77;;;2.40;99.90;;;;;;10276169;29;20199;-81
2022/04/04 20:59:48;;;;;;;15.40;8.67;;;2.40;99.90;;;;;;10262441;29;20202;-82
2022/04/04 21:05:09;;;;;;;14.13;8.53;;;2.40;99.90;;;;;;10257492;28;20195;-85
2022/04/04 21:10:31;;;;;;;6.63;5.70;;;2.50;99.90;;;;;;10286182;28;20432;-84
2022/04/04 21:15:54;;;;;;;24.67;10.23;;;2.50;99.90;;;;;;10285744;28;20275;-87
2022/04/04 21:21:15;;;;;;;7.23;5.40;;;2.50;99.90;;;;;;10250512;29;20562;-82
2022/04/04 21:26:37;;;;;;;5.67;5.07;;;2.60;99.90;;;;;;10268662;29;20261;-83
2022/04/04 21:32:00;;;;;;;7.00;5.57;;;2.70;99.90;;;;;;10258357;28;20543;-84
2022/04/04 21:37:21;;;;;;;7.47;5.43;;;2.70;99.90;;;;;;10245638;29;20381;-87
2022/04/04 21:42:42;;;;;;;5.37;4.87;;;2.70;99.90;;;;;;10271039;28;20248;-86
2022/04/04 21:48:04;;;;;;;7.97;6.27;;;2.80;99.90;;;;;;10257539;28;20276;-82
2022/04/04 21:53:26;;;;;;;7.97;6.00;;;2.90;99.90;;;;;;10245527;29;20492;-84
2022/04/04 21:58:51;;;;;;;8.00;6.60;;;2.90;99.90;;;;;;10261265;29;20192;-85
2022/04/04 22:04:13;;;;;;;7.03;6.00;;;3.00;99.90;;;;;;10237460;29;20216;-84
2022/04/04 22:09:34;;;;;;;6.13;5.50;;;3.00;99.90;;;;;;10260888;29;20506;-84
2022/04/04 22:14:56;;;;;;;16.63;9.87;;;3.10;99.90;;;;;;10247877;29;20198;-84
2022/04/04 22:20:17;;;;;;;7.00;6.30;;;3.20;99.90;;;;;;10285121;28;20406;-84
2022/04/04 22:25:39;;;;;;;7.00;6.10;;;3.30;99.90;;;;;;10284631;28;20205;-82
2022/04/04 22:31:00;;;;;;;13.63;8.17;;;3.30;99.90;;;;;;10287092;28;20255;-84
2022/04/04 22:36:21;;;;;;;7.03;6.00;;;3.40;99.90;;;;;;10284077;28;20508;-84
2022/04/04 22:41:43;;;;;;;5.90;5.07;;;3.40;99.90;;;;;;10259958;28;20245;-82
2022/04/04 22:47:05;;;;;;;6.93;4.90;;;3.40;99.90;;;;;;10253693;29;20190;-81
2022/04/04 22:52:27;;;;;;;5.17;4.63;;;3.40;99.90;;;;;;10243427;29;20235;-84
2022/04/04 22:57:50;;;;;;;6.83;4.80;;;3.40;99.90;;;;;;10282071;29;20197;-85
2022/04/04 23:03:12;;;;;;;6.80;5.00;;;3.50;99.90;;;;;;10238003;29;20246;-87
2022/04/04 23:08:33;;;;;;;5.30;4.80;;;3.50;99.90;;;;;;10237349;29;20206;-83
2022/04/04 23:13:54;;;;;;;5.90;5.20;;;3.60;99.90;;;;;;10266939;29;20201;-83
2022/04/04 23:19:16;;;;;;;8.40;6.60;;;3.60;99.90;;;;;;10255438;28;20214;-84
2022/04/04 23:24:37;;;;;;;6.70;5.47;;;3.70;99.90;;;;;;10266246;29;20405;-84
2022/04/04 23:29:59;;;;;;;5.97;5.33;;;3.80;99.90;;;;;;10279660;29;20245;-86
2022/04/04 23:35:20;;;;;;;5.97;5.30;;;3.90;99.90;;;;;;10279428;29;20432;-82
2022/04/04 23:40:42;;;;;;;5.63;4.93;;;4.00;99.90;;;;;;10264932;28;20210;-84
2022/04/04 23:46:03;;;;;;;10.03;4.90;;;4.00;99.90;;;;;;10236604;29;20203;-86
2022/04/04 23:51:25;;;;;;;8.97;4.63;;;4.00;99.90;;;;;;10211097;29;20234;-87
2022/04/04 23:56:47;;;;;;;12.20;4.80;;;4.00;99.90;;;;;;10209649;29;20207;-80
